sensor_id;sensor_type;location;lat;lon;timestamp;P1;durP1;ratioP1;P2;durP2;ratioP2
75963;SDS011;65820;44.726;37.764;2023-03-17T00:00:34;8.88;;;5.30;;
75963;SDS011;65820;44.726;37.764;2023-03-17T00:01:36;8.88;;;5.43;;
75963;SDS011;65820;44.726;37.764;2023-03-17T00:02:38;9.43;;;5.13;;
75963;SDS011;65820;44.726;37.764;2023-03-17T00:03:42;14.50;;;5.50;;
75963;SDS011;65820;44.726;37.764;2023-03-17T00:04:45;9.13;;;5.50;;
75963;SDS011;65820;44.726;37.764;2023-03-17T00:05:47;9.57;;;5.28;;
75963;SDS011;65820;44.726;37.764;2023-03-17T00:06:48;9.70;;;5.70;;
75963;SDS011;65820;44.726;37.764;2023-03-17T00:07:51;9.20;;;5.35;;
75963;SDS011;65820;44.726;37.764;2023-03-17T00:08:53;10.27;;;5.55;;
75963;SDS011;65820;44.726;37.764;2023-03-17T00:09:55;9.90;;;5.50;;
75963;SDS011;65820;44.726;37.764;2023-03-17T00:10:56;9.07;;;5.38;;
75963;SDS011;65820;44.726;37.764;2023-03-17T00:11:58;8.75;;;5.40;;
75963;SDS011;65820;44.726;37.764;2023-03-17T00:13:00;10.40;;;6.00;;
75963;SDS011;65820;44.726;37.764;2023-03-17T00:14:01;8.48;;;5.07;;
75963;SDS011;65820;44.726;37.764;2023-03-17T00:15:04;9.07;;;5.25;;
75963;SDS011;65820;44.726;37.764;2023-03-17T00:16:08;9.77;;;5.47;;
75963;SDS011;65820;44.726;37.764;2023-03-17T00:18:17;8.85;;;5.03;;
75963;SDS011;65820;44.726;37.764;2023-03-17T00:19:28;10.35;;;5.20;;
75963;SDS011;65820;44.726;37.764;2023-03-17T00:20:32;8.98;;;5.03;;
75963;SDS011;65820;44.726;37.764;2023-03-17T00:21:33;8.52;;;5.30;;
75963;SDS011;65820;44.726;37.764;2023-03-17T00:22:35;9.85;;;5.50;;
75963;SDS011;65820;44.726;37.764;2023-03-17T00:23:36;9.20;;;5.43;;
75963;SDS011;65820;44.726;37.764;2023-03-17T00:24:38;9.00;;;5.10;;
75963;SDS011;65820;44.726;37.764;2023-03-17T00:25:39;9.95;;;5.65;;
75963;SDS011;65820;44.726;37.764;2023-03-17T00:27:43;9.82;;;5.30;;
75963;SDS011;65820;44.726;37.764;2023-03-17T00:28:45;8.93;;;4.95;;
75963;SDS011;65820;44.726;37.764;2023-03-17T00:29:47;10.60;;;5.97;;
75963;SDS011;65820;44.726;37.764;2023-03-17T00:30:49;9.57;;;6.05;;
75963;SDS011;65820;44.726;37.764;2023-03-17T00:31:55;9.13;;;5.30;;
75963;SDS011;65820;44.726;37.764;2023-03-17T00:32:57;8.90;;;5.75;;
75963;SDS011;65820;44.726;37.764;2023-03-17T00:33:58;9.02;;;5.20;;
75963;SDS011;65820;44.726;37.764;2023-03-17T00:35:00;9.70;;;5.70;;
75963;SDS011;65820;44.726;37.764;2023-03-17T00:36:04;9.52;;;5.28;;
75963;SDS011;65820;44.726;37.764;2023-03-17T00:37:08;8.88;;;5.25;;
75963;SDS011;65820;44.726;37.764;2023-03-17T00:38:14;9.18;;;5.50;;
75963;SDS011;65820;44.726;37.764;2023-03-17T00:39:17;10.88;;;5.53;;
75963;SDS011;65820;44.726;37.764;2023-03-17T00:40:21;8.45;;;5.43;;
75963;SDS011;65820;44.726;37.764;2023-03-17T00:41:24;10.02;;;5.55;;
75963;SDS011;65820;44.726;37.764;2023-03-17T00:42:26;9.27;;;5.47;;
75963;SDS011;65820;44.726;37.764;2023-03-17T00:43:27;9.32;;;5.45;;
75963;SDS011;65820;44.726;37.764;2023-03-17T00:44:32;11.63;;;6.28;;
75963;SDS011;65820;44.726;37.764;2023-03-17T00:45:34;9.43;;;5.22;;
75963;SDS011;65820;44.726;37.764;2023-03-17T00:46:37;11.68;;;5.35;;
75963;SDS011;65820;44.726;37.764;2023-03-17T00:47:41;9.48;;;5.28;;
75963;SDS011;65820;44.726;37.764;2023-03-17T00:48:43;9.20;;;5.53;;
75963;SDS011;65820;44.726;37.764;2023-03-17T00:49:46;10.00;;;6.38;;
75963;SDS011;65820;44.726;37.764;2023-03-17T00:50:48;10.15;;;5.72;;
75963;SDS011;65820;44.726;37.764;2023-03-17T00:51:50;9.45;;;5.22;;
75963;SDS011;65820;44.726;37.764;2023-03-17T00:52:53;10.25;;;6.38;;
75963;SDS011;65820;44.726;37.764;2023-03-17T00:53:57;9.02;;;5.25;;
75963;SDS011;65820;44.726;37.764;2023-03-17T00:55:01;10.02;;;5.45;;
75963;SDS011;65820;44.726;37.764;2023-03-17T00:56:03;8.98;;;5.38;;
75963;SDS011;65820;44.726;37.764;2023-03-17T00:57:11;13.02;;;6.10;;
75963;SDS011;65820;44.726;37.764;2023-03-17T00:58:45;10.23;;;6.00;;
75963;SDS011;65820;44.726;37.764;2023-03-17T00:59:40;10.77;;;5.60;;
75963;SDS011;65820;44.726;37.764;2023-03-17T01:00:44;10.32;;;4.95;;
75963;SDS011;65820;44.726;37.764;2023-03-17T01:01:47;9.95;;;6.00;;
75963;SDS011;65820;44.726;37.764;2023-03-17T01:02:49;10.77;;;6.35;;
75963;SDS011;65820;44.726;37.764;2023-03-17T01:03:51;10.75;;;5.78;;
75963;SDS011;65820;44.726;37.764;2023-03-17T01:04:53;9.63;;;5.53;;
75963;SDS011;65820;44.726;37.764;2023-03-17T01:05:54;9.48;;;5.88;;
75963;SDS011;65820;44.726;37.764;2023-03-17T01:06:59;9.85;;;5.68;;
75963;SDS011;65820;44.726;37.764;2023-03-17T01:08:01;10.57;;;5.75;;
75963;SDS011;65820;44.726;37.764;2023-03-17T01:09:03;9.23;;;5.10;;
75963;SDS011;65820;44.726;37.764;2023-03-17T01:10:12;10.73;;;5.93;;
75963;SDS011;65820;44.726;37.764;2023-03-17T01:11:18;11.35;;;6.03;;
75963;SDS011;65820;44.726;37.764;2023-03-17T01:12:21;9.63;;;5.60;;
75963;SDS011;65820;44.726;37.764;2023-03-17T01:13:23;10.20;;;6.10;;
75963;SDS011;65820;44.726;37.764;2023-03-17T01:14:25;10.88;;;6.35;;
75963;SDS011;65820;44.726;37.764;2023-03-17T01:15:28;9.63;;;5.65;;
75963;SDS011;65820;44.726;37.764;2023-03-17T01:16:31;11.70;;;6.05;;
75963;SDS011;65820;44.726;37.764;2023-03-17T01:17:32;9.50;;;5.68;;
75963;SDS011;65820;44.726;37.764;2023-03-17T01:18:34;10.70;;;6.20;;
75963;SDS011;65820;44.726;37.764;2023-03-17T01:19:35;11.68;;;6.53;;
75963;SDS011;65820;44.726;37.764;2023-03-17T01:20:37;12.07;;;6.05;;
75963;SDS011;65820;44.726;37.764;2023-03-17T01:21:39;10.55;;;6.13;;
75963;SDS011;65820;44.726;37.764;2023-03-17T01:22:41;10.10;;;5.82;;
75963;SDS011;65820;44.726;37.764;2023-03-17T01:23:43;9.60;;;5.90;;
75963;SDS011;65820;44.726;37.764;2023-03-17T01:24:44;10.23;;;5.75;;
75963;SDS011;65820;44.726;37.764;2023-03-17T01:25:47;9.85;;;5.72;;
75963;SDS011;65820;44.726;37.764;2023-03-17T01:26:49;9.88;;;5.50;;
75963;SDS011;65820;44.726;37.764;2023-03-17T01:27:51;9.85;;;5.43;;
75963;SDS011;65820;44.726;37.764;2023-03-17T01:28:55;10.50;;;5.95;;
75963;SDS011;65820;44.726;37.764;2023-03-17T01:29:56;9.55;;;6.03;;
75963;SDS011;65820;44.726;37.764;2023-03-17T01:30:58;10.40;;;5.97;;
75963;SDS011;65820;44.726;37.764;2023-03-17T01:32:00;9.48;;;5.57;;
75963;SDS011;65820;44.726;37.764;2023-03-17T01:33:01;9.23;;;5.53;;
75963;SDS011;65820;44.726;37.764;2023-03-17T01:34:02;9.88;;;5.53;;
75963;SDS011;65820;44.726;37.764;2023-03-17T01:35:05;10.70;;;5.47;;
75963;SDS011;65820;44.726;37.764;2023-03-17T01:36:08;8.73;;;4.93;;
75963;SDS011;65820;44.726;37.764;2023-03-17T01:37:11;9.40;;;5.55;;
75963;SDS011;65820;44.726;37.764;2023-03-17T01:38:14;9.25;;;4.72;;
75963;SDS011;65820;44.726;37.764;2023-03-17T01:39:17;7.32;;;3.78;;
75963;SDS011;65820;44.726;37.764;2023-03-17T01:40:20;8.40;;;3.90;;
75963;SDS011;65820;44.726;37.764;2023-03-17T01:41:25;7.15;;;3.53;;
75963;SDS011;65820;44.726;37.764;2023-03-17T01:42:27;6.47;;;3.53;;
75963;SDS011;65820;44.726;37.764;2023-03-17T01:43:29;7.32;;;3.75;;
75963;SDS011;65820;44.726;37.764;2023-03-17T01:44:30;7.43;;;3.95;;
75963;SDS011;65820;44.726;37.764;2023-03-17T01:47:11;7.90;;;3.70;;
75963;SDS011;65820;44.726;37.764;2023-03-17T01:48:12;7.25;;;3.90;;
75963;SDS011;65820;44.726;37.764;2023-03-17T01:50:16;7.18;;;3.95;;
75963;SDS011;65820;44.726;37.764;2023-03-17T01:52:05;7.55;;;3.83;;
75963;SDS011;65820;44.726;37.764;2023-03-17T01:52:52;8.18;;;4.82;;
75963;SDS011;65820;44.726;37.764;2023-03-17T01:53:53;8.73;;;4.28;;
75963;SDS011;65820;44.726;37.764;2023-03-17T01:55:02;8.20;;;4.20;;
75963;SDS011;65820;44.726;37.764;2023-03-17T01:56:14;6.82;;;3.72;;
75963;SDS011;65820;44.726;37.764;2023-03-17T01:58:20;7.18;;;4.03;;
75963;SDS011;65820;44.726;37.764;2023-03-17T01:59:27;7.25;;;4.30;;
75963;SDS011;65820;44.726;37.764;2023-03-17T02:00:34;9.25;;;4.40;;
75963;SDS011;65820;44.726;37.764;2023-03-17T02:01:37;7.50;;;4.07;;
75963;SDS011;65820;44.726;37.764;2023-03-17T02:02:44;7.93;;;4.32;;
75963;SDS011;65820;44.726;37.764;2023-03-17T02:03:48;7.72;;;3.72;;
75963;SDS011;65820;44.726;37.764;2023-03-17T02:04:50;8.05;;;4.43;;
75963;SDS011;65820;44.726;37.764;2023-03-17T02:05:52;7.85;;;4.15;;
75963;SDS011;65820;44.726;37.764;2023-03-17T02:06:54;7.90;;;3.85;;
75963;SDS011;65820;44.726;37.764;2023-03-17T02:07:56;9.18;;;4.25;;
75963;SDS011;65820;44.726;37.764;2023-03-17T02:09:02;8.10;;;3.85;;
75963;SDS011;65820;44.726;37.764;2023-03-17T02:10:03;8.40;;;4.53;;
75963;SDS011;65820;44.726;37.764;2023-03-17T02:11:06;7.55;;;4.32;;
75963;SDS011;65820;44.726;37.764;2023-03-17T02:12:09;7.28;;;3.90;;
75963;SDS011;65820;44.726;37.764;2023-03-17T02:13:11;8.25;;;4.40;;
75963;SDS011;65820;44.726;37.764;2023-03-17T02:14:14;8.48;;;4.05;;
75963;SDS011;65820;44.726;37.764;2023-03-17T02:15:15;8.10;;;4.20;;
75963;SDS011;65820;44.726;37.764;2023-03-17T02:16:17;8.88;;;3.88;;
75963;SDS011;65820;44.726;37.764;2023-03-17T02:18:23;7.10;;;3.92;;
75963;SDS011;65820;44.726;37.764;2023-03-17T02:19:24;7.63;;;3.95;;
75963;SDS011;65820;44.726;37.764;2023-03-17T02:21:36;8.48;;;4.40;;
75963;SDS011;65820;44.726;37.764;2023-03-17T02:22:44;6.63;;;3.97;;
75963;SDS011;65820;44.726;37.764;2023-03-17T02:23:48;7.47;;;3.80;;
75963;SDS011;65820;44.726;37.764;2023-03-17T02:24:51;8.50;;;4.80;;
75963;SDS011;65820;44.726;37.764;2023-03-17T02:25:56;8.00;;;4.13;;
75963;SDS011;65820;44.726;37.764;2023-03-17T02:27:07;8.40;;;4.55;;
75963;SDS011;65820;44.726;37.764;2023-03-17T02:28:14;8.93;;;5.03;;
75963;SDS011;65820;44.726;37.764;2023-03-17T02:29:19;9.50;;;5.68;;
75963;SDS011;65820;44.726;37.764;2023-03-17T02:30:22;8.98;;;5.43;;
75963;SDS011;65820;44.726;37.764;2023-03-17T02:31:25;10.18;;;5.75;;
75963;SDS011;65820;44.726;37.764;2023-03-17T02:32:26;9.27;;;5.05;;
75963;SDS011;65820;44.726;37.764;2023-03-17T02:33:29;10.30;;;5.47;;
75963;SDS011;65820;44.726;37.764;2023-03-17T02:34:31;10.48;;;5.32;;
75963;SDS011;65820;44.726;37.764;2023-03-17T02:35:33;10.77;;;5.97;;
75963;SDS011;65820;44.726;37.764;2023-03-17T02:36:35;10.10;;;5.88;;
75963;SDS011;65820;44.726;37.764;2023-03-17T02:37:37;11.70;;;5.80;;
75963;SDS011;65820;44.726;37.764;2023-03-17T02:38:38;10.02;;;5.57;;
75963;SDS011;65820;44.726;37.764;2023-03-17T02:39:39;9.65;;;5.50;;
75963;SDS011;65820;44.726;37.764;2023-03-17T02:40:41;8.88;;;5.18;;
75963;SDS011;65820;44.726;37.764;2023-03-17T02:41:42;10.00;;;5.82;;
75963;SDS011;65820;44.726;37.764;2023-03-17T02:42:43;11.20;;;6.20;;
75963;SDS011;65820;44.726;37.764;2023-03-17T02:43:45;11.45;;;6.35;;
75963;SDS011;65820;44.726;37.764;2023-03-17T02:44:46;9.85;;;6.00;;
75963;SDS011;65820;44.726;37.764;2023-03-17T02:45:48;9.55;;;6.13;;
75963;SDS011;65820;44.726;37.764;2023-03-17T02:46:49;10.38;;;5.65;;
75963;SDS011;65820;44.726;37.764;2023-03-17T02:47:50;9.55;;;5.38;;
75963;SDS011;65820;44.726;37.764;2023-03-17T02:48:52;10.73;;;6.05;;
75963;SDS011;65820;44.726;37.764;2023-03-17T02:49:54;10.00;;;5.43;;
75963;SDS011;65820;44.726;37.764;2023-03-17T02:50:56;9.10;;;5.60;;
75963;SDS011;65820;44.726;37.764;2023-03-17T02:51:57;10.02;;;5.75;;
75963;SDS011;65820;44.726;37.764;2023-03-17T02:52:58;9.85;;;6.20;;
75963;SDS011;65820;44.726;37.764;2023-03-17T02:54:00;9.52;;;5.90;;
75963;SDS011;65820;44.726;37.764;2023-03-17T02:55:01;11.93;;;6.10;;
75963;SDS011;65820;44.726;37.764;2023-03-17T02:56:03;9.35;;;5.50;;
75963;SDS011;65820;44.726;37.764;2023-03-17T02:57:04;9.40;;;5.90;;
75963;SDS011;65820;44.726;37.764;2023-03-17T02:58:08;11.13;;;6.28;;
75963;SDS011;65820;44.726;37.764;2023-03-17T02:59:09;10.85;;;6.05;;
75963;SDS011;65820;44.726;37.764;2023-03-17T03:00:10;11.40;;;6.15;;
75963;SDS011;65820;44.726;37.764;2023-03-17T03:01:13;9.95;;;6.00;;
75963;SDS011;65820;44.726;37.764;2023-03-17T03:02:16;10.95;;;6.80;;
75963;SDS011;65820;44.726;37.764;2023-03-17T03:03:17;10.27;;;5.93;;
75963;SDS011;65820;44.726;37.764;2023-03-17T03:04:18;11.45;;;6.32;;
75963;SDS011;65820;44.726;37.764;2023-03-17T03:05:20;9.77;;;6.15;;
75963;SDS011;65820;44.726;37.764;2023-03-17T03:06:21;9.43;;;5.30;;
75963;SDS011;65820;44.726;37.764;2023-03-17T03:07:26;11.40;;;6.10;;
75963;SDS011;65820;44.726;37.764;2023-03-17T03:08:27;11.00;;;5.88;;
75963;SDS011;65820;44.726;37.764;2023-03-17T03:09:28;10.30;;;6.07;;
75963;SDS011;65820;44.726;37.764;2023-03-17T03:10:30;12.02;;;7.05;;
75963;SDS011;65820;44.726;37.764;2023-03-17T03:11:32;12.35;;;6.85;;
75963;SDS011;65820;44.726;37.764;2023-03-17T03:12:33;10.52;;;6.22;;
75963;SDS011;65820;44.726;37.764;2023-03-17T03:13:34;11.65;;;6.45;;
75963;SDS011;65820;44.726;37.764;2023-03-17T03:14:36;10.93;;;6.70;;
75963;SDS011;65820;44.726;37.764;2023-03-17T03:15:39;10.50;;;6.45;;
75963;SDS011;65820;44.726;37.764;2023-03-17T03:16:41;10.65;;;5.90;;
75963;SDS011;65820;44.726;37.764;2023-03-17T03:17:43;11.63;;;6.85;;
75963;SDS011;65820;44.726;37.764;2023-03-17T03:18:44;10.60;;;6.40;;
75963;SDS011;65820;44.726;37.764;2023-03-17T03:19:46;10.88;;;6.53;;
75963;SDS011;65820;44.726;37.764;2023-03-17T03:20:49;10.35;;;6.53;;
75963;SDS011;65820;44.726;37.764;2023-03-17T03:21:50;10.65;;;6.18;;
75963;SDS011;65820;44.726;37.764;2023-03-17T03:22:51;11.68;;;6.65;;
75963;SDS011;65820;44.726;37.764;2023-03-17T03:23:52;11.45;;;6.72;;
75963;SDS011;65820;44.726;37.764;2023-03-17T03:24:54;11.48;;;6.80;;
75963;SDS011;65820;44.726;37.764;2023-03-17T03:25:55;11.93;;;6.82;;
75963;SDS011;65820;44.726;37.764;2023-03-17T03:26:57;11.40;;;6.47;;
75963;SDS011;65820;44.726;37.764;2023-03-17T03:27:58;11.50;;;6.47;;
75963;SDS011;65820;44.726;37.764;2023-03-17T03:28:59;12.48;;;7.15;;
75963;SDS011;65820;44.726;37.764;2023-03-17T03:30:02;10.85;;;6.25;;
75963;SDS011;65820;44.726;37.764;2023-03-17T03:31:04;9.40;;;5.97;;
75963;SDS011;65820;44.726;37.764;2023-03-17T03:32:05;12.93;;;7.13;;
75963;SDS011;65820;44.726;37.764;2023-03-17T03:33:07;11.27;;;7.35;;
75963;SDS011;65820;44.726;37.764;2023-03-17T03:34:08;10.82;;;6.35;;
75963;SDS011;65820;44.726;37.764;2023-03-17T03:35:09;11.45;;;6.65;;
75963;SDS011;65820;44.726;37.764;2023-03-17T03:36:11;11.65;;;6.90;;
75963;SDS011;65820;44.726;37.764;2023-03-17T03:37:13;10.63;;;6.47;;
75963;SDS011;65820;44.726;37.764;2023-03-17T03:38:14;11.93;;;7.30;;
75963;SDS011;65820;44.726;37.764;2023-03-17T03:39:15;12.00;;;7.13;;
75963;SDS011;65820;44.726;37.764;2023-03-17T03:40:17;10.60;;;6.68;;
75963;SDS011;65820;44.726;37.764;2023-03-17T03:41:18;11.25;;;6.90;;
75963;SDS011;65820;44.726;37.764;2023-03-17T03:42:19;11.57;;;6.93;;
75963;SDS011;65820;44.726;37.764;2023-03-17T03:43:21;11.40;;;6.70;;
75963;SDS011;65820;44.726;37.764;2023-03-17T03:44:22;10.30;;;6.05;;
75963;SDS011;65820;44.726;37.764;2023-03-17T03:45:24;11.68;;;7.18;;
75963;SDS011;65820;44.726;37.764;2023-03-17T03:46:26;11.73;;;6.60;;
75963;SDS011;65820;44.726;37.764;2023-03-17T03:47:28;14.23;;;6.97;;
75963;SDS011;65820;44.726;37.764;2023-03-17T03:48:29;11.80;;;6.60;;
75963;SDS011;65820;44.726;37.764;2023-03-17T03:49:30;12.13;;;6.30;;
75963;SDS011;65820;44.726;37.764;2023-03-17T03:50:32;11.88;;;6.95;;
75963;SDS011;65820;44.726;37.764;2023-03-17T03:51:33;12.05;;;6.90;;
75963;SDS011;65820;44.726;37.764;2023-03-17T03:52:35;12.07;;;7.00;;
75963;SDS011;65820;44.726;37.764;2023-03-17T03:53:36;12.13;;;7.47;;
75963;SDS011;65820;44.726;37.764;2023-03-17T03:54:38;12.63;;;6.72;;
75963;SDS011;65820;44.726;37.764;2023-03-17T03:55:39;13.27;;;6.72;;
75963;SDS011;65820;44.726;37.764;2023-03-17T03:56:41;13.73;;;6.75;;
75963;SDS011;65820;44.726;37.764;2023-03-17T03:57:42;11.27;;;6.50;;
75963;SDS011;65820;44.726;37.764;2023-03-17T03:58:43;11.95;;;6.82;;
75963;SDS011;65820;44.726;37.764;2023-03-17T03:59:45;11.27;;;6.93;;
75963;SDS011;65820;44.726;37.764;2023-03-17T04:00:46;11.63;;;6.72;;
75963;SDS011;65820;44.726;37.764;2023-03-17T04:01:48;12.75;;;7.13;;
75963;SDS011;65820;44.726;37.764;2023-03-17T04:02:49;16.75;;;7.53;;
75963;SDS011;65820;44.726;37.764;2023-03-17T04:03:50;12.93;;;7.68;;
75963;SDS011;65820;44.726;37.764;2023-03-17T04:04:52;14.30;;;7.68;;
75963;SDS011;65820;44.726;37.764;2023-03-17T04:05:53;13.23;;;6.90;;
75963;SDS011;65820;44.726;37.764;2023-03-17T04:06:55;12.30;;;6.95;;
75963;SDS011;65820;44.726;37.764;2023-03-17T04:07:56;12.10;;;7.45;;
75963;SDS011;65820;44.726;37.764;2023-03-17T04:08:57;12.88;;;7.55;;
75963;SDS011;65820;44.726;37.764;2023-03-17T04:09:59;10.45;;;6.45;;
75963;SDS011;65820;44.726;37.764;2023-03-17T04:11:00;13.63;;;7.82;;
75963;SDS011;65820;44.726;37.764;2023-03-17T04:12:02;11.75;;;6.45;;
75963;SDS011;65820;44.726;37.764;2023-03-17T04:13:03;12.57;;;7.18;;
75963;SDS011;65820;44.726;37.764;2023-03-17T04:14:04;13.55;;;7.07;;
75963;SDS011;65820;44.726;37.764;2023-03-17T04:15:06;12.45;;;7.05;;
75963;SDS011;65820;44.726;37.764;2023-03-17T04:16:09;11.13;;;6.38;;
75963;SDS011;65820;44.726;37.764;2023-03-17T04:17:10;12.98;;;6.95;;
75963;SDS011;65820;44.726;37.764;2023-03-17T04:18:12;13.90;;;6.97;;
75963;SDS011;65820;44.726;37.764;2023-03-17T04:19:13;11.65;;;6.75;;
75963;SDS011;65820;44.726;37.764;2023-03-17T04:20:15;14.30;;;6.47;;
75963;SDS011;65820;44.726;37.764;2023-03-17T04:21:17;14.10;;;6.65;;
75963;SDS011;65820;44.726;37.764;2023-03-17T04:22:20;11.68;;;6.88;;
75963;SDS011;65820;44.726;37.764;2023-03-17T04:23:21;10.98;;;6.32;;
75963;SDS011;65820;44.726;37.764;2023-03-17T04:24:23;13.68;;;6.57;;
75963;SDS011;65820;44.726;37.764;2023-03-17T04:25:24;12.00;;;6.57;;
75963;SDS011;65820;44.726;37.764;2023-03-17T04:26:26;13.35;;;7.32;;
75963;SDS011;65820;44.726;37.764;2023-03-17T04:27:27;13.50;;;6.80;;
75963;SDS011;65820;44.726;37.764;2023-03-17T04:28:29;12.60;;;6.93;;
75963;SDS011;65820;44.726;37.764;2023-03-17T04:29:30;11.40;;;7.10;;
75963;SDS011;65820;44.726;37.764;2023-03-17T04:30:32;11.35;;;6.38;;
75963;SDS011;65820;44.726;37.764;2023-03-17T04:31:33;11.75;;;6.97;;
75963;SDS011;65820;44.726;37.764;2023-03-17T04:32:35;11.45;;;6.75;;
75963;SDS011;65820;44.726;37.764;2023-03-17T04:33:36;13.02;;;7.03;;
75963;SDS011;65820;44.726;37.764;2023-03-17T04:34:38;12.95;;;7.18;;
75963;SDS011;65820;44.726;37.764;2023-03-17T04:35:40;11.00;;;6.88;;
75963;SDS011;65820;44.726;37.764;2023-03-17T04:36:42;12.55;;;6.95;;
75963;SDS011;65820;44.726;37.764;2023-03-17T04:37:47;12.57;;;6.63;;
75963;SDS011;65820;44.726;37.764;2023-03-17T04:38:49;12.65;;;6.43;;
75963;SDS011;65820;44.726;37.764;2023-03-17T04:39:50;13.10;;;7.18;;
75963;SDS011;65820;44.726;37.764;2023-03-17T04:40:51;12.48;;;6.63;;
75963;SDS011;65820;44.726;37.764;2023-03-17T04:41:53;16.50;;;7.47;;
75963;SDS011;65820;44.726;37.764;2023-03-17T04:42:54;12.45;;;6.93;;
75963;SDS011;65820;44.726;37.764;2023-03-17T04:43:55;14.05;;;6.38;;
75963;SDS011;65820;44.726;37.764;2023-03-17T04:44:56;15.23;;;6.93;;
75963;SDS011;65820;44.726;37.764;2023-03-17T04:45:58;15.63;;;7.20;;
75963;SDS011;65820;44.726;37.764;2023-03-17T04:46:59;12.77;;;6.53;;
75963;SDS011;65820;44.726;37.764;2023-03-17T04:48:00;10.38;;;6.72;;
75963;SDS011;65820;44.726;37.764;2023-03-17T04:49:01;14.15;;;6.65;;
75963;SDS011;65820;44.726;37.764;2023-03-17T04:50:03;13.07;;;6.78;;
75963;SDS011;65820;44.726;37.764;2023-03-17T04:51:05;11.60;;;6.60;;
75963;SDS011;65820;44.726;37.764;2023-03-17T04:52:06;12.88;;;6.15;;
75963;SDS011;65820;44.726;37.764;2023-03-17T04:53:08;11.93;;;6.35;;
75963;SDS011;65820;44.726;37.764;2023-03-17T04:54:09;12.55;;;7.20;;
75963;SDS011;65820;44.726;37.764;2023-03-17T04:55:11;10.80;;;6.47;;
75963;SDS011;65820;44.726;37.764;2023-03-17T04:56:13;11.13;;;6.18;;
75963;SDS011;65820;44.726;37.764;2023-03-17T04:57:15;13.73;;;6.88;;
75963;SDS011;65820;44.726;37.764;2023-03-17T04:58:16;11.13;;;6.72;;
75963;SDS011;65820;44.726;37.764;2023-03-17T04:59:18;11.40;;;6.38;;
75963;SDS011;65820;44.726;37.764;2023-03-17T05:00:19;10.48;;;5.82;;
75963;SDS011;65820;44.726;37.764;2023-03-17T05:01:20;10.75;;;6.22;;
75963;SDS011;65820;44.726;37.764;2023-03-17T05:02:22;11.35;;;6.40;;
75963;SDS011;65820;44.726;37.764;2023-03-17T05:03:23;13.23;;;6.30;;
75963;SDS011;65820;44.726;37.764;2023-03-17T05:04:25;11.00;;;6.63;;
75963;SDS011;65820;44.726;37.764;2023-03-17T05:05:26;11.10;;;6.28;;
75963;SDS011;65820;44.726;37.764;2023-03-17T05:06:27;12.90;;;5.82;;
75963;SDS011;65820;44.726;37.764;2023-03-17T05:07:29;13.77;;;6.90;;
75963;SDS011;65820;44.726;37.764;2023-03-17T05:08:30;13.93;;;6.03;;
75963;SDS011;65820;44.726;37.764;2023-03-17T05:09:32;12.80;;;6.40;;
75963;SDS011;65820;44.726;37.764;2023-03-17T05:10:33;12.55;;;6.55;;
75963;SDS011;65820;44.726;37.764;2023-03-17T05:11:34;10.70;;;6.13;;
75963;SDS011;65820;44.726;37.764;2023-03-17T05:12:35;12.00;;;5.75;;
75963;SDS011;65820;44.726;37.764;2023-03-17T05:13:37;13.05;;;6.07;;
75963;SDS011;65820;44.726;37.764;2023-03-17T05:15:48;11.77;;;5.82;;
75963;SDS011;65820;44.726;37.764;2023-03-17T05:17:52;11.65;;;5.63;;
75963;SDS011;65820;44.726;37.764;2023-03-17T05:18:53;10.02;;;5.60;;
75963;SDS011;65820;44.726;37.764;2023-03-17T05:19:54;11.63;;;6.20;;
75963;SDS011;65820;44.726;37.764;2023-03-17T05:20:56;9.45;;;5.20;;
75963;SDS011;65820;44.726;37.764;2023-03-17T05:21:57;11.10;;;6.03;;
75963;SDS011;65820;44.726;37.764;2023-03-17T05:22:58;10.52;;;5.63;;
75963;SDS011;65820;44.726;37.764;2023-03-17T05:24:00;9.88;;;5.82;;
75963;SDS011;65820;44.726;37.764;2023-03-17T05:25:01;10.23;;;5.85;;
75963;SDS011;65820;44.726;37.764;2023-03-17T05:26:03;11.65;;;5.90;;
75963;SDS011;65820;44.726;37.764;2023-03-17T05:27:24;10.70;;;5.45;;
75963;SDS011;65820;44.726;37.764;2023-03-17T05:28:26;9.90;;;5.68;;
75963;SDS011;65820;44.726;37.764;2023-03-17T05:29:27;11.77;;;6.07;;
75963;SDS011;65820;44.726;37.764;2023-03-17T05:30:28;11.23;;;5.97;;
75963;SDS011;65820;44.726;37.764;2023-03-17T05:31:30;11.27;;;5.75;;
75963;SDS011;65820;44.726;37.764;2023-03-17T05:32:32;10.30;;;5.60;;
75963;SDS011;65820;44.726;37.764;2023-03-17T05:33:33;11.27;;;5.53;;
75963;SDS011;65820;44.726;37.764;2023-03-17T05:34:36;10.82;;;5.75;;
75963;SDS011;65820;44.726;37.764;2023-03-17T05:35:37;10.15;;;5.40;;
75963;SDS011;65820;44.726;37.764;2023-03-17T05:36:40;10.45;;;5.25;;
75963;SDS011;65820;44.726;37.764;2023-03-17T05:37:41;10.63;;;6.00;;
75963;SDS011;65820;44.726;37.764;2023-03-17T05:38:43;10.75;;;5.70;;
75963;SDS011;65820;44.726;37.764;2023-03-17T05:39:45;9.05;;;5.22;;
75963;SDS011;65820;44.726;37.764;2023-03-17T05:40:48;9.98;;;5.57;;
75963;SDS011;65820;44.726;37.764;2023-03-17T05:41:50;10.10;;;5.43;;
75963;SDS011;65820;44.726;37.764;2023-03-17T05:42:52;11.02;;;5.63;;
75963;SDS011;65820;44.726;37.764;2023-03-17T05:43:53;9.85;;;5.20;;
75963;SDS011;65820;44.726;37.764;2023-03-17T05:44:54;10.35;;;5.05;;
75963;SDS011;65820;44.726;37.764;2023-03-17T05:45:55;9.18;;;5.32;;
75963;SDS011;65820;44.726;37.764;2023-03-17T05:46:57;8.52;;;4.97;;
75963;SDS011;65820;44.726;37.764;2023-03-17T05:47:59;10.23;;;5.70;;
75963;SDS011;65820;44.726;37.764;2023-03-17T05:49:00;9.93;;;5.53;;
75963;SDS011;65820;44.726;37.764;2023-03-17T05:50:02;9.38;;;5.25;;
75963;SDS011;65820;44.726;37.764;2023-03-17T05:51:05;10.13;;;5.68;;
75963;SDS011;65820;44.726;37.764;2023-03-17T05:52:06;9.98;;;5.68;;
75963;SDS011;65820;44.726;37.764;2023-03-17T05:53:08;8.88;;;5.22;;
75963;SDS011;65820;44.726;37.764;2023-03-17T05:54:10;10.32;;;5.20;;
75963;SDS011;65820;44.726;37.764;2023-03-17T05:55:11;9.18;;;5.35;;
75963;SDS011;65820;44.726;37.764;2023-03-17T05:56:13;10.32;;;5.82;;
75963;SDS011;65820;44.726;37.764;2023-03-17T05:57:14;9.27;;;5.38;;
75963;SDS011;65820;44.726;37.764;2023-03-17T05:58:16;10.45;;;5.53;;
75963;SDS011;65820;44.726;37.764;2023-03-17T05:59:17;10.10;;;5.43;;
75963;SDS011;65820;44.726;37.764;2023-03-17T06:00:19;9.60;;;5.40;;
75963;SDS011;65820;44.726;37.764;2023-03-17T06:01:21;10.35;;;5.35;;
75963;SDS011;65820;44.726;37.764;2023-03-17T06:02:22;11.27;;;5.75;;
75963;SDS011;65820;44.726;37.764;2023-03-17T06:03:23;9.75;;;5.40;;
75963;SDS011;65820;44.726;37.764;2023-03-17T06:04:25;10.15;;;5.95;;
75963;SDS011;65820;44.726;37.764;2023-03-17T06:05:26;11.63;;;5.43;;
75963;SDS011;65820;44.726;37.764;2023-03-17T06:06:28;8.38;;;5.13;;
75963;SDS011;65820;44.726;37.764;2023-03-17T06:07:30;10.15;;;5.35;;
75963;SDS011;65820;44.726;37.764;2023-03-17T06:08:31;10.55;;;5.72;;
75963;SDS011;65820;44.726;37.764;2023-03-17T06:09:32;10.80;;;5.57;;
75963;SDS011;65820;44.726;37.764;2023-03-17T06:10:34;11.30;;;5.28;;
75963;SDS011;65820;44.726;37.764;2023-03-17T06:11:35;9.00;;;4.90;;
75963;SDS011;65820;44.726;37.764;2023-03-17T06:12:37;10.45;;;5.95;;
75963;SDS011;65820;44.726;37.764;2023-03-17T06:13:39;9.57;;;5.43;;
75963;SDS011;65820;44.726;37.764;2023-03-17T06:14:40;8.63;;;5.28;;
75963;SDS011;65820;44.726;37.764;2023-03-17T06:15:41;9.65;;;5.80;;
75963;SDS011;65820;44.726;37.764;2023-03-17T06:16:43;11.25;;;5.38;;